createdAt,value
2019-04-10T00:03:04.341Z,42.17
2019-04-10T00:08:10.247Z,41.35
2019-04-10T00:13:16.437Z,42.88
2019-04-10T00:18:22.163Z,40.83
2019-04-10T00:23:27.991Z,43.63
2019-04-10T00:28:33.870Z,41.73
2019-04-10T00:33:39.456Z,41.35
2019-04-10T00:38:44.956Z,42.60
2019-04-10T00:43:51.033Z,41.02
2019-04-10T00:48:56.653Z,41.25
2019-04-10T00:54:03.876Z,40.35
2019-04-10T00:59:10.281Z,37.98
2019-04-10T01:04:15.900Z,37.98
2019-04-10T01:09:23.475Z,35.80
2019-04-10T01:14:29.725Z,35.98
2019-04-10T01:19:36.285Z,35.55
2019-04-10T01:24:42.330Z,36.28
2019-04-10T01:29:47.935Z,35.78
2019-04-10T01:34:53.896Z,33.38
2019-04-10T01:39:59.538Z,31.55
2019-04-10T01:45:06.795Z,29.52
2019-04-10T01:50:12.579Z,28.67
2019-04-10T01:55:25.294Z,25.60
2019-04-10T02:00:27.772Z,24.82
2019-04-10T02:05:34.235Z,25.27
2019-04-10T02:10:40.543Z,23.20
2019-04-10T02:15:46.375Z,22.55
2019-04-10T02:20:51.857Z,23.90
2019-04-10T02:25:57.634Z,23.02
2019-04-10T02:31:04.706Z,23.18
2019-04-10T02:36:10.853Z,25.88
2019-04-10T02:41:17.385Z,27.37
2019-04-10T02:46:22.934Z,28.87
2019-04-10T02:51:28.493Z,28.25
2019-04-10T02:56:34.367Z,30.02
2019-04-10T03:01:41.363Z,28.30
2019-04-10T03:06:47.922Z,25.23
2019-04-10T03:11:55.470Z,23.80
2019-04-10T03:17:01.977Z,23.85
2019-04-10T03:22:09.089Z,21.07
2019-04-10T03:27:16.288Z,21.85
2019-04-10T03:32:47.993Z,27.00
2019-04-10T03:37:49.074Z,30.60
2019-04-10T03:42:55.104Z,35.50
2019-04-10T03:48:00.715Z,38.35
2019-04-10T03:53:07.591Z,40.10
2019-04-10T03:58:13.537Z,40.45
2019-04-10T04:03:19.055Z,43.25
2019-04-10T04:08:25.650Z,43.00
2019-04-10T04:13:31.358Z,43.60
2019-04-10T04:18:37.434Z,44.40
2019-04-10T04:23:43.203Z,45.78
2019-04-10T04:28:49.418Z,46.10
2019-04-10T04:33:55.593Z,48.23
2019-04-10T04:39:12.740Z,50.25
2019-04-10T04:44:08.656Z,49.27
2019-04-10T04:49:14.196Z,48.58
2019-04-10T04:54:19.674Z,45.25
2019-04-10T04:59:26.196Z,48.13
2019-04-10T05:04:32.677Z,48.38
2019-04-10T05:09:40.630Z,44.58
2019-04-10T05:14:46.658Z,43.28
2019-04-10T05:19:52.405Z,43.75
2019-04-10T05:24:57.894Z,42.75
2019-04-10T05:30:08.403Z,42.60
2019-04-10T05:35:15.181Z,41.37
2019-04-10T05:40:20.814Z,42.62
2019-04-10T05:45:27.572Z,39.45
2019-04-10T05:50:33.315Z,35.98
2019-04-10T05:55:38.835Z,34.27
2019-04-10T06:00:45.825Z,31.80
2019-04-10T06:05:51.334Z,30.20
2019-04-10T06:10:56.754Z,30.60
2019-04-10T06:16:02.173Z,29.55
2019-04-10T06:21:07.899Z,43.75
2019-04-10T06:26:16.565Z,27.58
2019-04-10T06:31:21.176Z,55.92
2019-04-10T06:36:27.208Z,39.67
2019-04-10T06:41:33.055Z,36.30
2019-04-10T06:46:40.796Z,45.43
2019-04-10T06:51:47.306Z,36.53
2019-04-10T06:56:52.959Z,40.15
2019-04-10T07:02:13.174Z,37.03
2019-04-10T07:07:11.333Z,35.85
2019-04-10T07:12:14.528Z,32.90
2019-04-10T07:40:56.719Z,31.77
2019-04-10T07:46:02.704Z,34.75
2019-04-10T07:51:09.067Z,37.60
2019-04-10T07:56:19.240Z,36.13
2019-04-10T08:01:24.283Z,36.40
2019-04-10T08:06:30.961Z,34.43
2019-04-10T08:11:36.495Z,33.53
2019-04-10T08:16:42.002Z,36.88
2019-04-10T08:21:47.563Z,37.73
2019-04-10T08:26:53.343Z,39.85
2019-04-10T08:31:59.190Z,40.08
2019-04-10T08:37:04.976Z,34.83
2019-04-10T08:42:10.940Z,32.05
2019-04-10T08:47:17.283Z,36.83
2019-04-10T08:52:24.136Z,44.30
2019-04-10T08:57:29.801Z,37.70
2019-04-10T09:02:35.981Z,36.75
2019-04-10T09:07:42.235Z,27.98
2019-04-10T09:12:47.961Z,27.75
2019-04-10T09:17:53.675Z,28.77
2019-04-10T09:23:17.882Z,28.73
2019-04-10T09:28:06.962Z,44.77
2019-04-10T09:33:21.381Z,34.67
2019-04-10T09:38:22.971Z,24.47
2019-04-10T09:43:29.542Z,47.23
2019-04-10T09:48:35.866Z,35.92
2019-04-10T09:53:43.346Z,26.82
2019-04-10T09:58:49.174Z,36.63
2019-04-10T10:03:54.852Z,24.20
2019-04-10T10:09:00.955Z,23.90
2019-04-10T10:14:08.275Z,23.65
2019-04-10T10:19:14.254Z,32.03
2019-04-10T10:24:19.861Z,24.87
2019-04-10T10:29:26.029Z,22.30
2019-04-10T10:34:31.784Z,27.35
2019-04-10T10:39:37.614Z,21.23
2019-04-10T10:44:43.402Z,28.87
2019-04-10T10:49:49.121Z,73.95
2019-04-10T10:54:55.024Z,59.08
2019-04-10T11:00:02.052Z,30.70
2019-04-10T11:05:10.710Z,23.95
2019-04-10T11:10:21.835Z,24.37
2019-04-10T11:15:26.023Z,24.57
2019-04-10T11:20:32.168Z,25.30
2019-04-10T11:25:37.889Z,24.10
2019-04-10T11:30:44.948Z,24.80
2019-04-10T11:35:51.504Z,24.65
2019-04-10T11:40:59.505Z,26.73
2019-04-10T11:46:05.039Z,27.60
2019-04-10T11:51:13.300Z,34.13
2019-04-10T11:56:19.277Z,32.98
2019-04-10T12:01:25.682Z,30.52
2019-04-10T12:06:33.807Z,31.40
2019-04-10T12:11:39.265Z,30.20
2019-04-10T12:16:45.259Z,29.82
2019-04-10T12:21:50.933Z,33.08
2019-04-10T12:26:56.666Z,34.03
2019-04-10T12:32:03.943Z,36.10
2019-04-10T12:37:09.883Z,36.55
2019-04-10T12:42:17.280Z,35.60
2019-04-10T12:47:23.869Z,34.75
2019-04-10T12:52:30.275Z,37.28
2019-04-10T12:57:37.059Z,51.68
2019-04-10T13:02:42.980Z,25.15
2019-04-10T13:07:48.904Z,26.40
2019-04-10T13:12:55.601Z,28.65
2019-04-10T13:18:01.226Z,30.92
2019-04-10T13:23:06.943Z,25.25
2019-04-10T13:28:15.121Z,27.15
2019-04-10T13:33:20.899Z,25.80
2019-04-10T13:38:32.653Z,22.52
2019-04-10T13:43:34.254Z,50.60
2019-04-10T13:48:39.827Z,21.40
2019-04-10T13:53:46.039Z,21.80
2019-04-10T13:58:52.986Z,19.12
2019-04-10T14:03:58.719Z,19.70
2019-04-10T14:09:25.235Z,20.00
2019-04-10T14:14:20.310Z,21.15
2019-04-10T14:19:27.810Z,22.98
2019-04-10T14:24:42.891Z,30.62
2019-04-10T14:29:42.460Z,33.40
2019-04-10T14:34:48.980Z,41.73
2019-04-10T14:39:55.763Z,34.95
2019-04-10T14:45:01.657Z,34.18
2019-04-10T14:50:07.725Z,32.83
2019-04-10T14:55:14.506Z,32.55
2019-04-10T15:00:31.156Z,33.67
2019-04-10T15:05:46.495Z,31.62
2019-04-10T15:10:45.056Z,32.25
2019-04-10T15:15:50.535Z,31.40
2019-04-10T15:20:58.576Z,28.67
2019-04-10T15:26:04.339Z,28.10
2019-04-10T15:31:11.005Z,29.37
2019-04-10T15:36:16.625Z,29.48
2019-04-10T15:41:23.806Z,27.80
2019-04-10T15:46:29.912Z,27.93
2019-04-10T15:51:36.603Z,26.93
2019-04-10T15:56:42.440Z,27.40
2019-04-10T16:01:48.968Z,26.82
2019-04-10T16:06:55.972Z,31.45
2019-04-10T16:12:06.183Z,29.98
2019-04-10T16:17:33.429Z,29.35
2019-04-10T16:22:40.762Z,33.13
2019-04-10T16:27:46.422Z,33.20
2019-04-10T16:32:52.331Z,30.62
2019-04-10T16:37:58.244Z,31.27
2019-04-10T16:43:04.934Z,29.30
2019-04-10T16:48:11.700Z,29.35
2019-04-10T16:53:18.093Z,28.25
2019-04-10T16:58:23.787Z,26.87
2019-04-10T17:03:29.621Z,28.38
2019-04-10T17:08:37.380Z,27.07
2019-04-10T17:13:42.880Z,28.95
2019-04-10T17:18:49.551Z,27.32
2019-04-10T17:23:55.217Z,25.32
2019-04-10T17:29:00.924Z,25.00
2019-04-10T17:34:06.658Z,25.55
2019-04-10T17:39:13.728Z,25.65
2019-04-10T17:44:19.530Z,24.67
2019-04-10T17:49:25.690Z,25.85
2019-04-10T17:54:31.507Z,24.37
2019-04-10T17:59:38.491Z,26.12
2019-04-10T18:04:44.270Z,24.30
2019-04-10T18:09:50.742Z,22.58
2019-04-10T18:14:57.547Z,21.57
2019-04-10T18:20:06.378Z,23.47
2019-04-10T18:25:12.338Z,25.05
2019-04-10T18:30:19.564Z,27.87
2019-04-10T18:35:25.220Z,27.62
2019-04-10T18:40:32.492Z,23.30
2019-04-10T18:45:40.927Z,24.52
2019-04-10T18:50:47.277Z,24.77
2019-04-10T18:55:53.054Z,26.93
2019-04-10T19:01:00.974Z,29.27
2019-04-10T19:06:08.399Z,22.42
2019-04-10T19:11:21.122Z,19.92
2019-04-10T19:16:23.500Z,18.90
2019-04-10T19:21:31.543Z,17.15
2019-04-10T19:26:37.749Z,17.17
2019-04-10T19:31:45.727Z,17.05
2019-04-10T19:36:52.172Z,16.45
2019-04-10T19:41:57.904Z,16.05
2019-04-10T19:47:04.182Z,16.97
2019-04-10T19:52:10.064Z,16.90
2019-04-10T19:57:15.959Z,17.10
2019-04-10T20:02:22.500Z,16.07
2019-04-10T20:07:29.045Z,16.82
2019-04-10T20:12:35.079Z,16.10
2019-04-10T20:17:40.604Z,15.65
2019-04-10T20:22:46.464Z,15.53
2019-04-10T20:27:52.177Z,15.63
2019-04-10T20:32:58.618Z,14.95
2019-04-10T20:38:04.619Z,13.72
2019-04-10T20:43:10.966Z,15.38
2019-04-10T20:48:16.803Z,14.35
2019-04-10T20:53:22.510Z,14.87
2019-04-10T20:58:28.159Z,13.72
2019-04-10T21:03:34.215Z,14.40
2019-04-10T21:08:40.425Z,14.68
2019-04-10T21:13:46.646Z,14.07
2019-04-10T21:18:52.275Z,14.55
2019-04-10T21:23:57.764Z,16.15
2019-04-10T21:29:04.558Z,15.95
2019-04-10T21:34:21.736Z,16.48
2019-04-10T21:39:27.801Z,15.43
2019-04-10T21:44:33.319Z,14.75
2019-04-10T21:49:39.991Z,15.53
2019-04-10T21:54:51.239Z,15.43
2019-04-10T21:59:53.807Z,14.65
2019-04-10T22:04:59.640Z,14.73
2019-04-10T22:10:20.626Z,16.70
2019-04-10T22:15:41.463Z,14.25
2019-04-10T22:20:47.980Z,15.32
2019-04-10T22:25:54.285Z,14.50
2019-04-10T22:31:00.227Z,15.03
2019-04-10T22:36:06.592Z,15.58
2019-04-10T22:41:24.764Z,14.10
2019-04-10T22:46:19.937Z,15.65
2019-04-10T22:51:26.955Z,15.23
2019-04-10T22:56:33.597Z,14.55
2019-04-10T23:01:39.888Z,15.10
2019-04-10T23:06:47.159Z,15.45
2019-04-10T23:11:53.906Z,14.65
2019-04-10T23:17:00.138Z,14.98
2019-04-10T23:22:07.220Z,14.58
2019-04-10T23:27:13.399Z,14.40
2019-04-10T23:32:19.424Z,15.00
2019-04-10T23:37:25.143Z,15.55
2019-04-10T23:42:30.723Z,14.30
2019-04-10T23:47:36.256Z,14.65
2019-04-10T23:52:44.329Z,16.37
2019-04-10T23:57:50.181Z,16.55
